Needles Airport
KEED : now visible

Airfield :











YOU CAN JOIN US ON...

 
LOGIN :

Register | Disclaimer

   EN    FR    IT 

 









Legend :    VFR   Marginal VFR   IFR   Intensive IFR   Very Intensive IFR
Visi :
Ceiling :
>= 8 km
>= 3000ft
5 to 8 km
1000 to 3000 ft
1500m to 5 km
500 to 1000 ft
800 to 1500m
200 to 500 ft
< 800m
< 200 ft
Symbols :   Thunderstorms  Fog  Heavy snow  Heavy precipitations  Wind > 20 kt






- Airport Elevation : 983 ft


KEED - Needles

CURRENT METAR :
  • 021856Z AUTO 02006KT 10SM CLR 42/12 A2995 RMK AO2 SLP099 T04220117 PNO $

EXPIRED METARs :
  • 021756Z AUTO 04004KT 10SM CLR 40/13 A2997 RMK AO2 SLP109 6//// T04000128 10406 20306 58007 PNO $
  • 021656Z AUTO 00000KT 10SM CLR 38/13 A2998 RMK AO2 SLP113 T03780128 PNO $

TAF KEED
Valid from the 02 at 18:00 until the 03 at 18:00 UTC


021720Z 0218/0318 VRB06KT P6SM FEW100
FM030300 24007KT P6SM SKC
FM030700 VRB05KT P6SM SKC
KZLA FIR / North America



MET'MAP, your aeronautical weather chart ! - Copyright ORBIFLY December 2007 - Disclaimer

ORBIFLY MET'MAP TEAM :

Programming & Development : Alexandra Zaïnal
Concept & original design : Baudouin d'Aumeries
Assistance for programming : Marc-Olivier Méhu
Technical & hardware support : Manuel Goepfert

Contact : metmap@orbifly.com




SOURCES & CREDITS :

   NOAA       Earth
Advisory